Halsteren, Netherlands
Current Conditions -  °F | °C
As of 10:25 PM on Wednesday 26 Nov 2014 (Local Time) from EHWO Reporting Station
Haze Haze  
Wind Chill: 45°   Ceiling: 100
Heat Index: 45°   Visibility: 1.1mi
Dew Point: 45°   Wind: 3mph
Humidity: 100%   Direction: 120°ESE
Pressure: 29.83"   Gusts: NA
Location:  51.53°N, 4.27°E
Report Text: EHWO 262125Z AUTO 12003KT 1800 BR OVC001 07/07 Q1010 RED
Loading
Personal Weather Stations






























Interactive Weather Map New forecast layout! Learn more

10-Day Weather Forecast

Advertisements
Track Severe Weather on mobile